Time;durP1;ratioP1;P1;durP2;ratioP2;P2;SDS_P1;SDS_P2;PMS_P1;PMS_P2;Temp;Humidity;BMP_temperature;BMP_pressure;BME280_temperature;BME280_humidity;BME280_pressure;Samples;Min_cycle;Max_cycle;Signal;HPM_P1;HPM_P2
2022/01/10 00:00:46;;;;;;;17.23;10.35;;;-4.50;94.60;;;;;;5095397;28;20020;-81
2022/01/10 00:03:13;;;;;;;18.55;11.63;;;-4.40;94.60;;;;;;5076963;28;20032;-82
2022/01/10 00:05:39;;;;;;;19.10;10.23;;;-4.50;94.50;;;;;;5095397;28;20021;-80
2022/01/10 00:08:05;;;;;;;16.52;11.48;;;-4.50;94.50;;;;;;5095219;28;20081;-79
2022/01/10 00:10:32;;;;;;;14.30;9.02;;;-4.50;94.50;;;;;;5095400;28;20020;-80
2022/01/10 00:12:58;;;;;;;22.70;10.63;;;-4.50;94.60;;;;;;5095438;28;20107;-80
2022/01/10 00:15:24;;;;;;;16.42;10.48;;;-4.50;94.70;;;;;;5095556;28;20055;-81
2022/01/10 00:17:50;;;;;;;19.98;12.05;;;-4.40;94.70;;;;;;5095980;28;20484;-79
2022/01/10 00:20:18;;;;;;;19.02;10.95;;;-4.50;94.80;;;;;;5096346;28;20027;-80
2022/01/10 00:22:47;;;;;;;20.17;11.98;;;-4.40;94.90;;;;;;5099031;28;20036;-79
2022/01/10 00:25:15;;;;;;;15.15;9.50;;;-4.40;94.90;;;;;;5103167;28;20076;-80
2022/01/10 00:27:42;;;;;;;15.95;10.82;;;-4.30;94.90;;;;;;5081248;28;20556;-80
2022/01/10 00:30:10;;;;;;;13.80;9.13;;;-4.30;94.80;;;;;;5078308;28;20562;-80
2022/01/10 00:32:41;;;;;;;17.08;10.73;;;-4.20;94.70;;;;;;5096669;28;20032;-80
2022/01/10 00:35:08;;;;;;;16.55;9.18;;;-4.20;94.60;;;;;;5097129;28;20028;-82
2022/01/10 00:37:34;;;;;;;15.07;9.43;;;-4.20;94.50;;;;;;5095472;28;20099;-81
2022/01/10 00:40:03;;;;;;;16.20;9.68;;;-4.10;94.50;;;;;;5095149;28;20032;-83
2022/01/10 00:42:29;;;;;;;18.95;10.50;;;-4.10;94.50;;;;;;5094563;28;20048;-82
2022/01/10 00:44:57;;;;;;;19.20;11.70;;;-4.10;94.40;;;;;;5094559;28;20028;-80
2022/01/10 00:47:23;;;;;;;17.48;10.18;;;-4.20;94.20;;;;;;5094501;28;20054;-80
2022/01/10 00:49:49;;;;;;;16.17;9.35;;;-4.10;94.30;;;;;;5095965;28;20039;-80
2022/01/10 00:52:15;;;;;;;19.60;10.68;;;-4.10;94.30;;;;;;5095868;28;20038;-82
2022/01/10 00:54:41;;;;;;;18.15;10.20;;;-4.00;94.40;;;;;;5095975;28;20024;-81
2022/01/10 00:57:07;;;;;;;16.52;9.85;;;-4.00;94.40;;;;;;5095628;28;20020;-81
2022/01/10 00:59:33;;;;;;;18.75;10.68;;;-3.90;94.20;;;;;;5100230;28;20027;-81
2022/01/10 01:01:58;;;;;;;21.90;12.45;;;-3.90;94.10;;;;;;5098041;28;20048;-81
2022/01/10 01:04:25;;;;;;;17.13;12.18;;;-3.90;94.10;;;;;;5096122;28;20051;-80
2022/01/10 01:06:51;;;;;;;18.73;11.15;;;-3.80;94.10;;;;;;5095033;28;20405;-82
2022/01/10 01:09:22;;;;;;;24.95;12.63;;;-3.80;94.10;;;;;;5094197;28;20024;-82
2022/01/10 01:15:18;;;;;;;19.60;13.48;;;-3.80;93.90;;;;;;5094319;28;20079;-83
2022/01/10 01:17:25;;;;;;;20.13;13.85;;;-3.80;93.90;;;;;;5083626;28;20055;-83
2022/01/10 01:20:08;;;;;;;19.77;11.32;;;-3.80;93.70;;;;;;5094406;28;20032;-81
2022/01/10 01:25:18;;;;;;;21.10;13.45;;;-3.80;93.30;;;;;;5073322;28;20104;-80
2022/01/10 01:27:45;;;;;;;19.65;12.18;;;-3.90;93.30;;;;;;5073558;28;20129;-79
2022/01/10 01:30:11;;;;;;;21.73;13.47;;;-4.00;93.40;;;;;;5074069;28;20017;-82
2022/01/10 01:32:38;;;;;;;27.00;14.95;;;-4.10;93.50;;;;;;5074134;28;20436;-80
2022/01/10 01:35:07;;;;;;;16.48;9.73;;;-4.10;93.70;;;;;;5073938;28;20020;-81
2022/01/10 01:37:35;;;;;;;22.95;15.30;;;-4.20;93.50;;;;;;5096016;28;20065;-81
2022/01/10 01:40:02;;;;;;;24.08;13.32;;;-4.20;94.00;;;;;;5097409;28;20024;-81
2022/01/10 01:45:02;;;;;;;16.20;11.55;;;-4.30;93.80;;;;;;5094128;28;20028;-81
2022/01/10 01:47:28;;;;;;;19.08;13.48;;;-4.30;94.00;;;;;;5093824;28;20496;-81
2022/01/10 01:49:54;;;;;;;21.65;13.52;;;-4.30;94.30;;;;;;5075138;28;20032;-80
2022/01/10 01:52:19;;;;;;;19.55;12.68;;;-4.30;94.40;;;;;;5095385;28;20522;-80
2022/01/10 01:54:45;;;;;;;17.38;10.63;;;-4.20;94.30;;;;;;5094093;28;20473;-80
2022/01/10 01:57:11;;;;;;;19.13;10.82;;;-4.20;94.30;;;;;;5094303;28;20028;-80
2022/01/10 01:59:38;;;;;;;22.00;12.75;;;-4.20;94.60;;;;;;5095075;28;20043;-81
2022/01/10 02:02:04;;;;;;;25.30;15.32;;;-4.10;94.60;;;;;;5103866;28;20137;-77
2022/01/10 02:04:30;;;;;;;24.10;14.07;;;-4.10;94.70;;;;;;5114012;28;20051;-80
2022/01/10 02:06:56;;;;;;;24.60;13.23;;;-4.00;94.70;;;;;;5094439;28;20016;-80
2022/01/10 02:09:22;;;;;;;25.52;14.70;;;-4.00;94.50;;;;;;5093526;28;20024;-81
2022/01/10 02:11:47;;;;;;;24.90;14.57;;;-4.00;94.20;;;;;;5093609;28;20024;-80
2022/01/10 02:14:18;;;;;;;23.65;13.45;;;-4.00;94.20;;;;;;5094093;28;20487;-82
2022/01/10 02:16:46;;;;;;;20.33;14.43;;;-4.00;94.30;;;;;;5094032;28;20038;-81
2022/01/10 02:19:12;;;;;;;28.55;14.27;;;-4.00;94.30;;;;;;5094052;28;20027;-81
2022/01/10 02:21:39;;;;;;;26.13;14.82;;;-4.00;94.10;;;;;;5095307;28;20020;-81
2022/01/10 02:24:06;;;;;;;27.17;17.40;;;-4.00;94.20;;;;;;5105492;28;20028;-81
2022/01/10 02:26:33;;;;;;;23.05;14.50;;;-4.00;94.30;;;;;;5106344;28;20069;-80
2022/01/10 02:28:59;;;;;;;;;;;-4.00;94.30;;;;;;5108456;28;20031;-80
2022/01/10 02:31:25;;;;;;;24.83;15.40;;;-4.10;94.30;;;;;;5097882;28;19956;-82
2022/01/10 02:33:56;;;;;;;23.70;14.75;;;-4.10;94.20;;;;;;5106121;28;20020;-80
2022/01/10 02:36:26;;;;;;;23.85;13.63;;;-4.10;94.20;;;;;;5108725;28;20028;-83
2022/01/10 02:38:57;;;;;;;21.33;14.10;;;-4.10;94.60;;;;;;5075505;28;20013;-81
2022/01/10 02:41:31;;;;;;;27.33;15.73;;;-4.10;94.30;;;;;;5074698;28;20028;-83
2022/01/10 02:43:59;;;;;;;25.55;14.13;;;-4.00;94.20;;;;;;5073300;28;20075;-83
2022/01/10 02:46:26;;;;;;;22.73;13.15;;;-4.00;94.00;;;;;;5084625;28;20071;-83
2022/01/10 02:48:52;;;;;;;22.42;14.80;;;-4.00;94.00;;;;;;5082331;28;20028;-83
2022/01/10 02:51:18;;;;;;;25.70;13.55;;;-4.00;94.10;;;;;;5072890;28;20021;-83
2022/01/10 02:53:44;;;;;;;22.27;13.82;;;-4.00;94.20;;;;;;5072700;28;20024;-81
2022/01/10 02:56:10;;;;;;;21.00;13.13;;;-4.00;94.20;;;;;;5072715;28;20039;-84
2022/01/10 02:58:36;;;;;;;20.10;13.15;;;-3.90;94.30;;;;;;5089568;28;20028;-82
2022/01/10 03:01:03;;;;;;;32.65;15.05;;;-3.90;94.10;;;;;;5075296;28;20020;-83
2022/01/10 03:03:30;;;;;;;26.73;13.18;;;-3.90;93.90;;;;;;5076806;28;20060;-84
2022/01/10 03:05:57;;;;;;;23.35;13.93;;;-3.90;93.80;;;;;;5104974;28;20048;-82
2022/01/10 03:08:24;;;;;;;;;;;-3.90;93.90;;;;;;5096597;28;20393;-82
2022/01/10 03:10:50;;;;;;;22.25;14.45;;;-3.90;93.90;;;;;;5093691;28;19930;-82
2022/01/10 03:13:15;;;;;;;27.45;12.55;;;-4.00;93.70;;;;;;5092940;28;20111;-81
2022/01/10 03:15:41;;;;;;;21.38;12.60;;;-4.00;93.80;;;;;;5092523;28;20385;-81
2022/01/10 03:18:07;;;;;;;22.75;12.30;;;-4.00;93.90;;;;;;5092586;28;20028;-82
2022/01/10 03:20:33;;;;;;;24.83;12.48;;;-4.00;93.90;;;;;;5095350;28;20025;-82
2022/01/10 03:22:58;;;;;;;21.23;13.20;;;-3.90;93.90;;;;;;5096732;28;20035;-81
2022/01/10 03:25:24;;;;;;;20.35;11.88;;;-3.90;93.90;;;;;;5096998;28;20388;-80
2022/01/10 03:27:50;;;;;;;21.20;12.52;;;-3.90;93.90;;;;;;5096466;28;20469;-79
2022/01/10 03:30:16;;;;;;;22.45;13.60;;;-3.90;93.70;;;;;;5097016;28;20427;-80
2022/01/10 03:32:45;;;;;;;21.20;13.68;;;-3.90;93.50;;;;;;5096531;28;20408;-81
2022/01/10 03:35:11;;;;;;;22.67;11.27;;;-3.90;93.60;;;;;;5097749;28;20377;-80
2022/01/10 03:37:37;;;;;;;19.92;11.15;;;-4.00;93.60;;;;;;5101954;28;20028;-78
2022/01/10 03:40:03;;;;;;;22.13;12.88;;;-4.00;93.70;;;;;;5105356;28;20027;-80
2022/01/10 03:42:29;;;;;;;18.88;11.05;;;-3.90;93.90;;;;;;5095872;28;20039;-80
2022/01/10 03:44:54;;;;;;;19.02;11.23;;;-3.90;93.90;;;;;;5095916;28;20099;-80
2022/01/10 03:47:21;;;;;;;17.23;10.75;;;-3.90;93.70;;;;;;5095770;28;20024;-79
2022/01/10 03:49:47;;;;;;;16.35;9.68;;;-3.90;93.80;;;;;;5095624;28;20077;-79
2022/01/10 03:52:13;;;;;;;26.15;10.82;;;-3.80;93.80;;;;;;5095714;28;20027;-79
2022/01/10 03:54:39;;;;;;;21.65;13.95;;;-3.80;93.70;;;;;;5096187;28;20723;-80
2022/01/10 03:57:05;;;;;;;24.63;14.15;;;-3.80;93.40;;;;;;5095511;28;20043;-79
2022/01/10 03:59:32;;;;;;;19.48;11.88;;;-3.90;93.20;;;;;;5095426;28;20085;-80
2022/01/10 04:01:58;;;;;;;21.52;11.20;;;-3.90;93.30;;;;;;5095612;28;20020;-79
2022/01/10 04:04:24;;;;;;;20.55;12.43;;;-4.00;93.50;;;;;;5095456;28;20020;-79
2022/01/10 04:06:50;;;;;;;20.02;11.63;;;-4.00;93.70;;;;;;5095575;28;20043;-81
2022/01/10 04:09:21;;;;;;;16.98;11.30;;;-3.90;93.80;;;;;;5095317;28;20028;-81
2022/01/10 04:11:47;;;;;;;23.30;11.35;;;-3.90;93.70;;;;;;5095691;28;20076;-81
2022/01/10 04:14:12;;;;;;;22.23;11.07;;;-3.90;93.70;;;;;;5096839;28;20054;-83
2022/01/10 04:16:39;;;;;;;18.02;11.07;;;-3.90;93.60;;;;;;5098664;28;20027;-81
2022/01/10 04:19:05;;;;;;;25.30;11.93;;;-3.90;93.60;;;;;;5102957;28;20028;-80
2022/01/10 04:21:31;;;;;;;19.20;10.70;;;-3.90;93.70;;;;;;5099299;28;20389;-81
2022/01/10 04:23:57;;;;;;;19.42;11.60;;;-3.80;93.80;;;;;;5096498;28;20108;-81
2022/01/10 04:26:26;;;;;;;19.83;11.27;;;-3.80;93.50;;;;;;5095290;28;20024;-83
2022/01/10 04:28:51;;;;;;;18.67;10.88;;;-3.80;93.40;;;;;;5095211;28;20123;-80
2022/01/10 04:31:17;;;;;;;21.08;10.95;;;-3.90;93.40;;;;;;5095165;28;20047;-81
2022/01/10 04:33:43;;;;;;;29.05;11.75;;;-3.90;93.40;;;;;;5099189;28;20127;-79
2022/01/10 04:36:09;;;;;;;17.27;9.82;;;-3.90;93.30;;;;;;5098322;28;20119;-81
2022/01/10 04:38:36;;;;;;;18.63;10.75;;;-3.90;93.40;;;;;;5076894;28;20111;-81
2022/01/10 04:41:03;;;;;;;22.83;10.80;;;-3.90;93.40;;;;;;5096006;28;20016;-80
2022/01/10 04:43:28;;;;;;;17.52;10.45;;;-3.90;93.30;;;;;;5086639;28;20052;-81
2022/01/10 04:45:54;;;;;;;18.00;8.68;;;-3.90;93.30;;;;;;5094715;28;20047;-82
2022/01/10 04:48:21;;;;;;;18.52;10.05;;;-3.90;93.40;;;;;;5084192;28;20027;-82
2022/01/10 04:53:33;;;;;;;18.30;11.45;;;-4.00;93.50;;;;;;5096129;28;20035;-81
2022/01/10 04:55:59;;;;;;;12.75;8.68;;;-4.00;93.30;;;;;;5095280;28;20036;-82
2022/01/10 04:58:25;;;;;;;16.67;9.32;;;-4.00;93.20;;;;;;5094724;28;20035;-81
2022/01/10 05:00:53;;;;;;;16.50;9.43;;;-4.00;93.60;;;;;;5094679;28;20043;-82
2022/01/10 05:03:20;;;;;;;18.98;10.40;;;-4.00;93.80;;;;;;5076854;28;20043;-82
2022/01/10 05:05:46;;;;;;;14.00;9.25;;;-4.00;93.80;;;;;;5094710;28;20465;-82
2022/01/10 05:08:12;;;;;;;17.83;8.57;;;-4.00;93.80;;;;;;5094890;28;20032;-82
2022/01/10 05:10:37;;;;;;;12.70;7.80;;;-4.00;93.80;;;;;;5077036;28;20081;-83
2022/01/10 05:13:03;;;;;;;17.42;9.80;;;-4.00;93.80;;;;;;5096927;28;20036;-81
2022/01/10 05:15:29;;;;;;;19.23;9.80;;;-4.00;93.80;;;;;;5096108;28;20038;-82
2022/01/10 05:17:55;;;;;;;16.85;8.75;;;-3.90;93.70;;;;;;5099362;28;20075;-82
2022/01/10 05:20:21;;;;;;;17.40;9.23;;;-3.90;93.60;;;;;;5101942;28;20064;-82
2022/01/10 05:22:47;;;;;;;15.68;9.77;;;-4.00;93.70;;;;;;5094599;28;20149;-82
2022/01/10 05:25:14;;;;;;;15.77;8.70;;;-3.90;93.80;;;;;;5094810;28;20393;-82
2022/01/10 05:27:39;;;;;;;16.35;8.23;;;-3.90;93.80;;;;;;5078698;28;20066;-81
2022/01/10 05:30:06;;;;;;;15.95;9.38;;;-3.90;93.80;;;;;;5096204;28;20423;-82
2022/01/10 05:32:32;;;;;;;16.77;9.23;;;-3.90;93.80;;;;;;5079660;28;20024;-81
2022/01/10 05:34:57;;;;;;;16.42;9.50;;;-3.90;93.80;;;;;;5094873;28;20101;-81
2022/01/10 05:37:23;;;;;;;7.80;5.43;;;-3.90;93.90;;;;;;5095108;28;20391;-82
2022/01/10 05:39:49;;;;;;;12.60;5.18;;;-3.90;94.00;;;;;;5095042;28;20420;-79
2022/01/10 05:42:18;;;;;;;21.58;11.75;;;-4.00;94.40;;;;;;5094676;28;20046;-81
2022/01/10 05:44:45;;;;;;;16.27;8.80;;;-4.00;94.40;;;;;;5094377;28;20031;-82
2022/01/10 05:47:10;;;;;;;16.52;10.43;;;-4.00;94.30;;;;;;5094501;28;20428;-81
2022/01/10 05:49:45;;;;;;;16.02;10.50;;;-4.10;94.20;;;;;;5093549;28;20085;-82
2022/01/10 05:52:11;;;;;;;18.40;9.88;;;-4.10;94.20;;;;;;5093388;28;20048;-82
2022/01/10 05:54:37;;;;;;;14.70;8.43;;;-4.10;94.20;;;;;;5093191;28;20111;-81
2022/01/10 05:57:03;;;;;;;18.42;9.93;;;-4.10;94.20;;;;;;5075518;28;20013;-81
2022/01/10 05:59:31;;;;;;;14.18;7.95;;;-4.10;94.40;;;;;;5093539;28;20114;-83
2022/01/10 06:01:57;;;;;;;12.40;9.32;;;-4.10;94.60;;;;;;5093393;28;20633;-81
2022/01/10 06:04:24;;;;;;;14.52;7.97;;;-4.00;94.60;;;;;;5051348;28;20084;-82
2022/01/10 06:06:49;;;;;;;17.27;9.18;;;-3.90;94.60;;;;;;5051549;28;20037;-82
2022/01/10 06:09:15;;;;;;;11.85;8.15;;;-3.90;94.60;;;;;;5052083;28;20052;-81
2022/01/10 06:11:41;;;;;;;15.23;9.70;;;-3.80;94.50;;;;;;5051712;28;20096;-82
2022/01/10 06:14:08;;;;;;;15.23;8.75;;;-3.80;94.30;;;;;;5053016;28;20060;-82
2022/01/10 06:16:34;;;;;;;14.25;7.63;;;-3.70;94.20;;;;;;5056270;28;20488;-84
2022/01/10 06:19:00;;;;;;;14.60;8.17;;;-3.70;94.20;;;;;;5052533;28;20544;-82
2022/01/10 06:21:26;;;;;;;15.30;8.07;;;-3.70;94.00;;;;;;5063511;28;20305;-82
2022/01/10 06:23:52;;;;;;;14.68;9.18;;;-3.70;93.90;;;;;;5069364;28;20040;-83
2022/01/10 06:26:17;;;;;;;13.73;7.78;;;-3.70;93.60;;;;;;5067716;28;20478;-81
2022/01/10 06:28:43;;;;;;;12.68;6.30;;;-3.70;93.50;;;;;;5053096;28;20112;-79
2022/01/10 06:31:09;;;;;;;15.43;8.55;;;-3.70;93.60;;;;;;5055697;28;20052;-78
2022/01/10 06:33:35;;;;;;;13.38;8.50;;;-3.70;93.20;;;;;;5054206;28;20037;-80
2022/01/10 06:36:00;;;;;;;14.57;8.18;;;-3.80;93.20;;;;;;5082869;28;20036;-81
2022/01/10 06:38:26;;;;;;;21.23;9.60;;;-3.80;93.40;;;;;;5093931;28;20032;-82
2022/01/10 06:40:52;;;;;;;12.77;7.68;;;-3.90;93.60;;;;;;5076359;28;20435;-83
2022/01/10 06:43:18;;;;;;;16.60;7.93;;;-3.90;93.60;;;;;;5093508;28;20161;-83
2022/01/10 06:45:44;;;;;;;16.15;10.50;;;-3.90;93.80;;;;;;5097680;28;20461;-80
2022/01/10 06:48:10;;;;;;;14.55;8.57;;;-3.90;94.10;;;;;;5113088;28;20031;-80
2022/01/10 06:50:36;;;;;;;16.45;7.65;;;-3.90;94.10;;;;;;5099635;28;20031;-82
2022/01/10 06:53:02;;;;;;;14.15;7.18;;;-3.90;94.20;;;;;;5096165;28;20020;-82
2022/01/10 06:55:28;;;;;;;10.10;6.60;;;-3.90;94.30;;;;;;5085728;28;20035;-83
2022/01/10 06:57:54;;;;;;;12.65;8.35;;;-3.80;94.30;;;;;;5110939;28;20019;-80
2022/01/10 07:00:20;;;;;;;10.10;7.43;;;-3.80;94.10;;;;;;5114941;28;20057;-80
2022/01/10 07:02:46;;;;;;;13.38;7.82;;;-3.70;93.90;;;;;;5113817;28;20111;-81
2022/01/10 07:05:14;;;;;;;11.25;7.35;;;-3.70;93.80;;;;;;5113317;28;20506;-82
2022/01/10 07:07:39;;;;;;;;;;;-3.70;93.60;;;;;;5076301;28;20502;-80
2022/01/10 07:10:05;;;;;;;13.60;9.20;;;-3.70;93.40;;;;;;5075365;28;19908;-81
2022/01/10 07:12:31;;;;;;;10.68;6.55;;;-3.70;93.40;;;;;;5054669;28;20048;-80
2022/01/10 07:14:57;;;;;;;13.63;7.68;;;-3.70;93.60;;;;;;5072320;28;20071;-80
2022/01/10 07:17:23;;;;;;;11.07;6.43;;;-3.70;93.50;;;;;;5072520;28;20389;-81
2022/01/10 07:19:48;;;;;;;9.90;7.35;;;-3.70;93.20;;;;;;5073803;28;20535;-80
2022/01/10 07:22:14;;;;;;;11.23;6.15;;;-3.70;93.30;;;;;;5072597;28;20025;-79
2022/01/10 07:24:40;;;;;;;11.32;7.88;;;-3.70;93.40;;;;;;5072421;28;20036;-79
2022/01/10 07:27:09;;;;;;;15.30;9.88;;;-3.70;93.50;;;;;;5072638;28;20077;-80
2022/01/10 07:29:35;;;;;;;13.82;7.32;;;-3.70;93.30;;;;;;5055146;28;20074;-78
2022/01/10 07:32:00;;;;;;;11.00;6.95;;;-3.60;93.20;;;;;;5073754;28;20029;-79
2022/01/10 07:34:26;;;;;;;12.82;6.88;;;-3.60;93.30;;;;;;5074625;28;20043;-80
2022/01/10 07:36:55;;;;;;;15.90;8.02;;;-3.60;93.40;;;;;;5056259;28;20473;-79
2022/01/10 07:39:23;;;;;;;12.57;7.07;;;-3.60;93.50;;;;;;5055666;28;20025;-80
2022/01/10 07:41:49;;;;;;;12.27;7.68;;;-3.50;93.50;;;;;;5072122;28;20075;-80
2022/01/10 07:44:15;;;;;;;14.68;7.10;;;-3.50;93.60;;;;;;5073225;28;20449;-80
2022/01/10 07:46:41;;;;;;;17.25;6.55;;;-3.40;93.70;;;;;;5091748;28;20058;-82
2022/01/10 07:49:06;;;;;;;7.97;5.18;;;-3.40;93.60;;;;;;5092711;28;20045;-81
2022/01/10 07:51:32;;;;;;;13.95;7.80;;;-3.30;93.10;;;;;;5091923;28;20477;-80
2022/01/10 07:53:59;;;;;;;13.38;7.82;;;-3.30;92.80;;;;;;5091937;28;20031;-80
2022/01/10 07:56:26;;;;;;;11.13;6.38;;;-3.40;92.70;;;;;;5091136;28;20046;-82
2022/01/10 07:58:52;;;;;;;9.57;5.78;;;-3.40;92.90;;;;;;5075111;28;20066;-80
2022/01/10 08:01:22;;;;;;;9.77;5.20;;;-3.40;93.10;;;;;;5093715;28;20024;-78
2022/01/10 08:03:50;;;;;;;11.25;5.05;;;-3.30;93.10;;;;;;5097935;28;20032;-80
2022/01/10 08:06:17;;;;;;;11.38;5.40;;;-3.30;93.10;;;;;;5074039;28;20060;-80
2022/01/10 08:08:43;;;;;;;10.70;5.57;;;-3.20;93.20;;;;;;5075785;28;20036;-81
2022/01/10 08:11:09;;;;;;;11.88;6.53;;;-3.10;93.10;;;;;;5076849;28;20027;-79
2022/01/10 08:13:35;;;;;;;14.25;7.50;;;-3.00;93.20;;;;;;5085579;28;20032;-81
2022/01/10 08:16:00;;;;;;;20.42;8.05;;;-2.90;93.10;;;;;;5096583;28;20108;-80
2022/01/10 08:18:30;;;;;;;15.45;5.35;;;-2.80;92.80;;;;;;5095899;28;20024;-79
2022/01/10 08:20:56;;;;;;;9.65;5.38;;;-2.80;92.50;;;;;;5096209;28;20016;-80
2022/01/10 08:23:22;;;;;;;16.00;8.47;;;-2.80;92.10;;;;;;5077428;28;20036;-81
2022/01/10 08:25:48;;;;;;;12.35;6.82;;;-2.80;91.90;;;;;;5077568;28;20495;-82
2022/01/10 08:28:14;;;;;;;11.73;6.53;;;-2.80;92.40;;;;;;5075756;28;20374;-81
2022/01/10 08:30:40;;;;;;;11.13;6.97;;;-2.80;92.30;;;;;;5094705;28;20393;-79
2022/01/10 08:33:06;;;;;;;11.45;5.90;;;-2.80;92.40;;;;;;5095137;28;20024;-80
2022/01/10 08:35:33;;;;;;;14.07;6.35;;;-2.80;92.20;;;;;;5095254;28;20381;-82
2022/01/10 08:37:59;;;;;;;10.18;6.60;;;-2.80;92.20;;;;;;5096162;28;20016;-80
2022/01/10 08:40:25;;;;;;;13.45;6.85;;;-2.80;92.00;;;;;;5077535;28;20078;-79
2022/01/10 08:42:51;;;;;;;13.82;5.78;;;-2.90;92.10;;;;;;5073560;28;20485;-79
2022/01/10 08:45:17;;;;;;;10.57;7.18;;;-2.80;91.90;;;;;;5068065;28;20386;-80
2022/01/10 08:47:43;;;;;;;9.55;6.15;;;-2.90;91.90;;;;;;5085923;28;20096;-80
2022/01/10 08:50:10;;;;;;;12.77;6.05;;;-2.90;92.00;;;;;;5087674;28;20383;-79
2022/01/10 08:52:37;;;;;;;10.27;6.10;;;-2.80;92.10;;;;;;5075341;28;20500;-82
2022/01/10 08:55:04;;;;;;;13.05;6.55;;;-2.80;92.20;;;;;;5075856;28;20021;-81
2022/01/10 08:57:30;;;;;;;12.88;6.22;;;-2.70;92.20;;;;;;5075066;28;20158;-79
2022/01/10 08:59:56;;;;;;;10.43;5.47;;;-2.70;91.90;;;;;;5074441;28;20086;-79
2022/01/10 09:02:21;;;;;;;11.80;5.95;;;-2.70;91.40;;;;;;5061670;28;20142;-82
2022/01/10 09:04:47;;;;;;;10.65;6.65;;;-2.80;91.50;;;;;;5077425;28;20029;-80
2022/01/10 09:07:13;;;;;;;10.82;6.03;;;-2.80;91.40;;;;;;5082013;28;20029;-80
2022/01/10 09:09:40;;;;;;;12.27;4.60;;;-2.80;91.50;;;;;;5079091;28;20044;-82
2022/01/10 09:12:06;;;;;;;10.70;6.18;;;-2.90;91.70;;;;;;5076317;28;20025;-82
2022/01/10 09:14:32;;;;;;;7.50;4.53;;;-2.90;91.60;;;;;;5075561;28;20028;-86
2022/01/10 09:16:58;;;;;;;11.07;5.40;;;-2.90;91.50;;;;;;5074515;28;20101;-81
2022/01/10 09:19:23;;;;;;;6.63;4.28;;;-3.00;91.40;;;;;;5074163;28;20078;-83
2022/01/10 09:21:49;;;;;;;7.07;4.50;;;-3.00;91.40;;;;;;5069089;28;20066;-83
2022/01/10 09:24:17;;;;;;;12.57;6.35;;;-3.10;91.60;;;;;;5053110;28;20519;-79
2022/01/10 09:26:43;;;;;;;8.18;4.32;;;-3.10;91.60;;;;;;5056878;28;20092;-82
2022/01/10 09:29:09;;;;;;;10.40;4.80;;;-3.20;91.70;;;;;;5054210;28;20126;-82
2022/01/10 09:31:35;;;;;;;9.82;4.97;;;-3.20;91.90;;;;;;5052403;28;20025;-81
2022/01/10 09:34:02;;;;;;;7.40;4.57;;;-3.30;91.90;;;;;;5053742;28;20025;-82
2022/01/10 09:36:31;;;;;;;6.40;4.03;;;-3.20;92.10;;;;;;5068090;28;20025;-84
2022/01/10 09:38:58;;;;;;;9.77;5.68;;;-3.20;91.80;;;;;;5074542;28;20056;-82
2022/01/10 09:41:25;;;;;;;7.32;4.72;;;-3.20;91.50;;;;;;5072653;28;20078;-82
2022/01/10 09:44:01;;;;;;;9.32;5.22;;;-3.30;91.40;;;;;;5091229;28;20068;-81
2022/01/10 09:46:28;;;;;;;7.00;4.00;;;-3.30;91.60;;;;;;5095056;28;20444;-83
2022/01/10 09:48:55;;;;;;;9.27;4.45;;;-3.40;91.80;;;;;;5093980;28;20055;-82
2022/01/10 09:51:24;;;;;;;8.52;5.28;;;-3.40;92.00;;;;;;5088896;28;20064;-81
2022/01/10 09:53:51;;;;;;;6.32;4.00;;;-3.40;91.90;;;;;;5081073;28;20024;-81
2022/01/10 09:56:16;;;;;;;8.82;5.25;;;-3.40;92.30;;;;;;5078460;28;20029;-83
2022/01/10 09:58:43;;;;;;;8.70;4.60;;;-3.40;92.10;;;;;;5074067;28;20036;-81
2022/01/10 10:01:11;;;;;;;9.23;5.10;;;-3.40;92.20;;;;;;5055423;28;20032;-83
2022/01/10 10:03:37;;;;;;;9.77;4.05;;;-3.40;92.00;;;;;;5090568;28;20114;-80
2022/01/10 10:06:05;;;;;;;9.90;5.47;;;-3.40;92.20;;;;;;5093006;28;20180;-82
2022/01/10 10:08:31;;;;;;;10.38;5.35;;;-3.40;92.40;;;;;;5092450;28;20085;-80
2022/01/10 10:10:59;;;;;;;9.10;4.55;;;-3.30;92.50;;;;;;5093229;28;20028;-80
2022/01/10 10:13:25;;;;;;;10.95;4.30;;;-3.20;92.50;;;;;;5092983;28;20087;-80
2022/01/10 10:15:52;;;;;;;13.93;5.35;;;-3.20;92.60;;;;;;5075266;28;20125;-82
2022/01/10 10:18:18;;;;;;;11.15;5.05;;;-3.10;92.40;;;;;;5093267;28;20050;-82
2022/01/10 10:20:45;;;;;;;19.27;6.28;;;-3.00;92.10;;;;;;5093714;28;20389;-82
2022/01/10 10:23:15;;;;;;;11.68;5.20;;;-3.00;92.10;;;;;;5092667;28;20040;-80
2022/01/10 10:25:53;;;;;;;7.47;3.72;;;-2.90;92.10;;;;;;5073317;28;20028;-82
2022/01/10 10:28:20;;;;;;;7.95;4.45;;;-2.80;92.10;;;;;;5072440;28;20021;-83
2022/01/10 10:30:48;;;;;;;9.35;4.68;;;-2.80;91.70;;;;;;5054161;28;20436;-81
2022/01/10 10:33:25;;;;;;;8.13;4.82;;;-2.70;91.40;;;;;;5073180;28;20021;-81
2022/01/10 10:36:08;;;;;;;;;;;-2.70;91.10;;;;;;5055428;28;20164;-80
2022/01/10 10:38:34;;;;;;;8.48;4.65;;;-2.70;91.10;;;;;;5054934;28;19912;-82
2022/01/10 10:41:03;;;;;;;6.90;4.22;;;-2.70;90.80;;;;;;5092018;28;20059;-82
2022/01/10 10:43:34;;;;;;;5.60;3.42;;;-2.70;90.50;;;;;;5092544;28;20100;-80
2022/01/10 10:46:02;;;;;;;6.63;4.15;;;-2.70;90.60;;;;;;5092975;28;20481;-81
2022/01/10 10:48:29;;;;;;;7.85;3.72;;;-2.80;90.90;;;;;;5076705;28;20021;-81
2022/01/10 10:50:59;;;;;;;5.60;4.60;;;-2.80;91.10;;;;;;5094382;28;20036;-81
2022/01/10 10:53:30;;;;;;;8.52;5.22;;;-2.70;90.90;;;;;;5093221;28;20024;-82
2022/01/10 10:56:01;;;;;;;5.72;3.10;;;-2.70;91.40;;;;;;5086423;28;20024;-82
2022/01/10 10:58:28;;;;;;;5.20;3.67;;;-2.80;91.10;;;;;;5073209;28;20020;-83
2022/01/10 11:00:55;;;;;;;6.37;4.30;;;-2.90;90.80;;;;;;5078834;28;20540;-79
2022/01/10 11:03:22;;;;;;;8.63;4.05;;;-3.00;91.00;;;;;;5093456;28;20044;-81
2022/01/10 11:05:48;;;;;;;3.15;2.50;;;-3.00;91.20;;;;;;5094527;28;20035;-81
2022/01/10 11:08:14;;;;;;;12.43;4.38;;;-3.00;91.60;;;;;;5097173;28;20039;-81
2022/01/10 11:10:40;;;;;;;8.02;4.68;;;-3.10;91.70;;;;;;5098353;28;20358;-82
2022/01/10 11:13:07;;;;;;;6.72;4.70;;;-3.20;91.80;;;;;;5100458;28;20089;-81
2022/01/10 11:15:38;;;;;;;8.52;5.03;;;-3.20;92.00;;;;;;5079426;28;20028;-81
2022/01/10 11:18:06;;;;;;;9.57;4.35;;;-3.20;91.90;;;;;;5078995;28;20170;-80
2022/01/10 11:20:55;;;;;;;7.45;4.80;;;-3.30;92.00;;;;;;5074919;28;20381;-82
2022/01/10 11:23:22;;;;;;;7.00;3.70;;;-3.30;91.90;;;;;;5063204;28;20055;-81
2022/01/10 11:25:49;;;;;;;8.25;4.10;;;-3.40;92.00;;;;;;5056932;28;20024;-83
2022/01/10 11:28:28;;;;;;;12.10;3.95;;;-3.40;92.20;;;;;;5077363;28;20089;-78
2022/01/10 11:31:02;;;;;;;7.00;4.15;;;-3.40;92.20;;;;;;5083256;28;20035;-81
2022/01/10 11:33:32;;;;;;;8.52;5.05;;;-3.50;92.30;;;;;;5085311;28;20033;-80
2022/01/10 11:36:03;;;;;;;7.80;5.53;;;-3.40;92.30;;;;;;5077330;28;20048;-83
2022/01/10 11:38:34;;;;;;;3.65;2.38;;;-3.50;92.60;;;;;;5074725;28;20017;-81
2022/01/10 11:41:15;;;;;;;8.40;4.72;;;-3.50;92.90;;;;;;5076980;28;20029;-81
2022/01/10 11:44:04;;;;;;;7.25;4.88;;;-3.50;93.30;;;;;;5076957;28;20048;-80
2022/01/10 11:46:42;;;;;;;4.75;2.38;;;-3.50;93.10;;;;;;5099681;28;20092;-81
2022/01/10 11:49:13;;;;;;;10.45;4.35;;;-3.40;93.40;;;;;;5108099;28;20030;-81
2022/01/10 11:51:46;;;;;;;10.07;4.03;;;-3.50;93.70;;;;;;5102662;28;20031;-81
2022/01/10 11:54:28;;;;;;;8.02;4.28;;;-3.50;93.50;;;;;;5105470;28;20027;-79
2022/01/10 11:57:04;;;;;;;7.75;4.97;;;-3.50;93.20;;;;;;5081389;28;20488;-81
2022/01/10 11:59:42;;;;;;;8.93;4.50;;;-3.60;93.20;;;;;;5078982;28;20047;-80
2022/01/10 12:02:27;;;;;;;8.57;5.72;;;-3.60;93.40;;;;;;5098064;28;20032;-80
2022/01/10 12:05:00;;;;;;;7.05;3.67;;;-3.60;93.70;;;;;;5080627;28;20123;-81
2022/01/10 12:07:27;;;;;;;12.65;4.22;;;-3.60;93.70;;;;;;5079065;28;20485;-80
2022/01/10 12:09:54;;;;;;;12.05;6.72;;;-3.60;93.70;;;;;;5096757;28;20024;-80
2022/01/10 12:12:24;;;;;;;5.40;3.03;;;-3.50;93.60;;;;;;5097260;28;20024;-82
2022/01/10 12:14:55;;;;;;;15.40;4.30;;;-3.50;93.60;;;;;;5097465;28;20484;-81
2022/01/10 12:17:21;;;;;;;6.85;3.90;;;-3.50;93.70;;;;;;5096302;28;20096;-81
2022/01/10 12:19:47;;;;;;;8.02;4.18;;;-3.50;93.30;;;;;;5096535;28;20105;-81
2022/01/10 12:22:13;;;;;;;6.85;3.88;;;-3.50;93.60;;;;;;5096421;28;20047;-81
2022/01/10 12:24:40;;;;;;;11.40;3.90;;;-3.50;93.30;;;;;;5077221;28;20039;-82
2022/01/10 12:27:15;;;;;;;6.13;3.40;;;-3.60;93.30;;;;;;5095142;28;20027;-81
2022/01/10 12:29:42;;;;;;;8.98;4.15;;;-3.60;93.30;;;;;;5095551;28;20074;-82
2022/01/10 12:32:11;;;;;;;6.60;4.63;;;-3.60;93.20;;;;;;5095539;28;20016;-81
2022/01/10 12:34:38;;;;;;;9.38;4.75;;;-3.60;93.50;;;;;;5083590;28;20040;-81
2022/01/10 12:37:04;;;;;;;7.78;4.15;;;-3.60;93.60;;;;;;5075090;28;20029;-80
2022/01/10 12:39:35;;;;;;;8.48;3.72;;;-3.60;93.70;;;;;;5074872;28;20039;-81
2022/01/10 12:42:01;;;;;;;6.32;3.53;;;-3.60;93.80;;;;;;5057157;28;20021;-82
2022/01/10 12:44:28;;;;;;;8.40;3.65;;;-3.60;93.90;;;;;;5076910;28;20481;-81
2022/01/10 12:46:55;;;;;;;6.40;4.07;;;-3.60;93.70;;;;;;5095453;28;20020;-83
2022/01/10 12:49:23;;;;;;;12.20;6.60;;;-3.60;93.60;;;;;;5094935;28;20032;-81